Iver Agile — IBHW — position and weather

sailwx.info

Track history (hours):
 
Tides and Currents Weather Stations Pressure Air Temp Water Temp Dewpoint Dewpoint Depression Visibility Wind Speed Wind Dir Waves Ship Positions

Iver Agile

Last reported at 2014-Aug-22 08:32 UTC. Time now 2014-Aug-22 09:54 UTC.
Position N 36°48' E 010°25'.

Length 110 m; draft 6.6 m.

Type: Tanker. MMSI: 247103700.

Date/timePositionNaut miles runAvg speedWind from/ knotsBaromVisibWave heightAir tempDewpointWater temp
2014-Aug-22 08:32N 36°48' E 010°25'16 1.2
2014-Aug-21 18:33N 37°04' E 010°29'1413.4
2014-Aug-21 17:29N 37°18' E 010°25'2613.4
2014-Aug-21 15:33N 37°43' E 010°17'1413.7
2014-Aug-21 14:33N 37°56' E 010°11'1413.6
2014-Aug-21 13:33N 38°09' E 010°05'1413.7
2014-Aug-21 12:33N 38°21' E 009°59'1413.5
2014-Aug-21 11:33N 38°34' E 009°53'1413.6
2014-Aug-21 10:33N 38°47' E 009°47'3113.2
2014-Aug-21 08:12N 39°18' E 009°43'23513.3
2014-Aug-20 14:32N 43°12' E 010°04'1413.8
2014-Aug-20 13:33N 43°25' E 010°10'1010.1
2014-Aug-20 12:33N 43°33' E 010°18'2 2.0
2014-Aug-20 11:33N 43°35' E 010°19'0 0.0
2014-Aug-20 10:33N 43°35' E 010°19'0 0.0
2014-Aug-20 09:33N 43°35' E 010°19'0 0.0
2014-Aug-20 08:33N 43°35' E 010°19'0 0.0
2014-Aug-20 07:30N 43°35' E 010°19'0 0.0
2014-Aug-20 06:12N 43°35' E 010°19'0 0.0
2014-Aug-20 05:24N 43°35' E 010°19'0 0.0
2014-Aug-20 04:12N 43°35' E 010°19'0 0.0
2014-Aug-20 03:33N 43°35' E 010°19'0 0.0
2014-Aug-20 02:33N 43°35' E 010°19'0 0.0
2014-Aug-20 01:30N 43°35' E 010°19'0 0.0
2014-Aug-20 00:24N 43°35' E 010°19'0 0.0
2014-Aug-19 23:33N 43°35' E 010°19'0 0.0
2014-Aug-19 22:33N 43°35' E 010°19'0 0.0
2014-Aug-19 21:33N 43°35' E 010°19'0 0.0
2014-Aug-19 20:21N 43°35' E 010°19'0 0.0
2014-Aug-19 19:33N 43°35' E 010°19'0 0.0
2014-Aug-19 18:33N 43°35' E 010°19'0 0.0
2014-Aug-19 17:33N 43°35' E 010°19'0 0.0
2014-Aug-19 16:27N 43°35' E 010°19'0 0.0
2014-Aug-19 11:25N 43°35' E 010°19'0 0.0
2014-Aug-19 10:25N 43°35' E 010°19'0 0.0
2014-Aug-18 18:04N 43°35' E 010°19'0 0.1
2014-Aug-18 17:33N 43°35' E 010°19'4 3.8
2014-Aug-18 16:33N 43°32' E 010°17'1 0.8
2014-Aug-18 15:31N 43°31' E 010°17'0 0.0
2014-Aug-18 14:31N 43°31' E 010°17'0 0.0
2014-Aug-18 13:28N 43°31' E 010°17'0 0.0
2014-Aug-18 12:31N 43°31' E 010°17'0 0.3
2014-Aug-18 11:33N 43°31' E 010°17'1111.0
2014-Aug-18 10:34N 43°21' E 010°12'1414.1
2014-Aug-18 09:34N 43°07' E 010°08'1413.8
2014-Aug-18 08:33N 42°53' E 010°03'1413.2
2014-Aug-18 07:29N 42°40' E 010°08'36013.9
2014-Aug-17 05:32N 38°22' E 015°39'1110.7
2014-Aug-17 04:30N 38°11' E 015°37'1211.9
2014-Aug-17 03:32N 37°60' E 015°36'1312.2
2014-Aug-17 02:29N 37°52' E 015°50'36912.7
2014-Aug-15 21:31N 36°31' E 023°21'1514.0
2014-Aug-15 20:27N 36°43' E 023°32'1314.0
2014-Aug-15 19:32N 36°54' E 023°40'1413.9
2014-Aug-15 18:33N 37°06' E 023°48'1513.9
2014-Aug-15 17:28N 37°19' E 023°58'1313.8
2014-Aug-15 16:33N 37°30' E 024°06'1813.5
2014-Aug-15 15:14N 37°44' E 024°19'913.3
2014-Aug-15 14:33N 37°50' E 024°27'4113.8
2014-Aug-15 11:33N 38°26' E 024°55'1514.4
2014-Aug-15 10:30N 38°39' E 025°04'1414.1
2014-Aug-15 09:32N 38°51' E 025°12'3113.7
2014-Aug-15 07:16N 39°19' E 025°30'1013.8
2014-Aug-15 06:31N 39°29' E 025°36'10813.3
2014-Aug-14 22:24N 40°40' E 027°22'2614.2
2014-Aug-14 20:32N 40°48' E 027°55'1414.2
2014-Aug-14 19:33N 40°51' E 028°13'1714.0
2014-Aug-14 18:19N 40°53' E 028°36'1114.0
2014-Aug-14 17:33N 40°55' E 028°50'140 4.5
2014-Aug-13 10:10N 43°09' E 027°57'0 0.0
2014-Aug-13 09:31N 43°09' E 027°57'0 0.0
2014-Aug-13 08:22N 43°09' E 027°57'  
Track history (hours):
 
Tides and Currents Weather Stations Pressure Air Temp Water Temp Dewpoint Dewpoint Depression Visibility Wind Speed Wind Dir Waves Ship Positions

Iver Agile

Last reported at 2014-Aug-22 08:32 UTC. Time now 2014-Aug-22 09:54 UTC.
Position N 36°48' E 010°25'.

Length 110 m; draft 6.6 m.

Type: Tanker. MMSI: 247103700.

Date/timePositionNaut miles runAvg speedWind from/ knotsBaromVisibWave heightAir tempDewpointWater temp
2014-Aug-22 08:32N 36°48' E 010°25'16 1.2
2014-Aug-21 18:33N 37°04' E 010°29'1413.4
2014-Aug-21 17:29N 37°18' E 010°25'2613.4
2014-Aug-21 15:33N 37°43' E 010°17'1413.7
2014-Aug-21 14:33N 37°56' E 010°11'1413.6
2014-Aug-21 13:33N 38°09' E 010°05'1413.7
2014-Aug-21 12:33N 38°21' E 009°59'1413.5
2014-Aug-21 11:33N 38°34' E 009°53'1413.6
2014-Aug-21 10:33N 38°47' E 009°47'3113.2
2014-Aug-21 08:12N 39°18' E 009°43'23513.3
2014-Aug-20 14:32N 43°12' E 010°04'1413.8
2014-Aug-20 13:33N 43°25' E 010°10'1010.1
2014-Aug-20 12:33N 43°33' E 010°18'2 2.0
2014-Aug-20 11:33N 43°35' E 010°19'0 0.0
2014-Aug-20 10:33N 43°35' E 010°19'0 0.0
2014-Aug-20 09:33N 43°35' E 010°19'0 0.0
2014-Aug-20 08:33N 43°35' E 010°19'0 0.0
2014-Aug-20 07:30N 43°35' E 010°19'0 0.0
2014-Aug-20 06:12N 43°35' E 010°19'0 0.0
2014-Aug-20 05:24N 43°35' E 010°19'0 0.0
2014-Aug-20 04:12N 43°35' E 010°19'0 0.0
2014-Aug-20 03:33N 43°35' E 010°19'0 0.0
2014-Aug-20 02:33N 43°35' E 010°19'0 0.0
2014-Aug-20 01:30N 43°35' E 010°19'0 0.0
2014-Aug-20 00:24N 43°35' E 010°19'0 0.0
2014-Aug-19 23:33N 43°35' E 010°19'0 0.0
2014-Aug-19 22:33N 43°35' E 010°19'0 0.0
2014-Aug-19 21:33N 43°35' E 010°19'0 0.0
2014-Aug-19 20:21N 43°35' E 010°19'0 0.0
2014-Aug-19 19:33N 43°35' E 010°19'0 0.0
2014-Aug-19 18:33N 43°35' E 010°19'0 0.0
2014-Aug-19 17:33N 43°35' E 010°19'0 0.0
2014-Aug-19 16:27N 43°35' E 010°19'0 0.0
2014-Aug-19 11:25N 43°35' E 010°19'0 0.0
2014-Aug-19 10:25N 43°35' E 010°19'0 0.0
2014-Aug-18 18:04N 43°35' E 010°19'0 0.1
2014-Aug-18 17:33N 43°35' E 010°19'4 3.8
2014-Aug-18 16:33N 43°32' E 010°17'1 0.8
2014-Aug-18 15:31N 43°31' E 010°17'0 0.0
2014-Aug-18 14:31N 43°31' E 010°17'0 0.0
2014-Aug-18 13:28N 43°31' E 010°17'0 0.0
2014-Aug-18 12:31N 43°31' E 010°17'0 0.3
2014-Aug-18 11:33N 43°31' E 010°17'1111.0
2014-Aug-18 10:34N 43°21' E 010°12'1414.1
2014-Aug-18 09:34N 43°07' E 010°08'1413.8
2014-Aug-18 08:33N 42°53' E 010°03'1413.2
2014-Aug-18 07:29N 42°40' E 010°08'36013.9
2014-Aug-17 05:32N 38°22' E 015°39'1110.7
2014-Aug-17 04:30N 38°11' E 015°37'1211.9
2014-Aug-17 03:32N 37°60' E 015°36'1312.2
2014-Aug-17 02:29N 37°52' E 015°50'36912.7
2014-Aug-15 21:31N 36°31' E 023°21'1514.0
2014-Aug-15 20:27N 36°43' E 023°32'1314.0
2014-Aug-15 19:32N 36°54' E 023°40'1413.9
2014-Aug-15 18:33N 37°06' E 023°48'1513.9
2014-Aug-15 17:28N 37°19' E 023°58'1313.8
2014-Aug-15 16:33N 37°30' E 024°06'1813.5
2014-Aug-15 15:14N 37°44' E 024°19'913.3
2014-Aug-15 14:33N 37°50' E 024°27'4113.8
2014-Aug-15 11:33N 38°26' E 024°55'1514.4
2014-Aug-15 10:30N 38°39' E 025°04'1414.1
2014-Aug-15 09:32N 38°51' E 025°12'3113.7
2014-Aug-15 07:16N 39°19' E 025°30'1013.8
2014-Aug-15 06:31N 39°29' E 025°36'10813.3
2014-Aug-14 22:24N 40°40' E 027°22'2614.2
2014-Aug-14 20:32N 40°48' E 027°55'1414.2
2014-Aug-14 19:33N 40°51' E 028°13'1714.0
2014-Aug-14 18:19N 40°53' E 028°36'1114.0
2014-Aug-14 17:33N 40°55' E 028°50'140 4.5
2014-Aug-13 10:10N 43°09' E 027°57'0 0.0
2014-Aug-13 09:31N 43°09' E 027°57'0 0.0
2014-Aug-13 08:22N 43°09' E 027°57'  

Dump ship's entire track history